sensor_id;sensor_type;location;lat;lon;timestamp;P1;durP1;ratioP1;P2;durP2;ratioP2
83556;SDS011;73523;55.740;13.276;2024-03-02T00:00:10;18.23;;;14.48;;
83556;SDS011;73523;55.740;13.276;2024-03-02T00:02:44;18.75;;;14.50;;
83556;SDS011;73523;55.740;13.276;2024-03-02T00:05:10;16.77;;;13.90;;
83556;SDS011;73523;55.740;13.276;2024-03-02T00:07:37;18.57;;;14.80;;
83556;SDS011;73523;55.740;13.276;2024-03-02T00:10:07;16.95;;;13.95;;
83556;SDS011;73523;55.740;13.276;2024-03-02T00:12:37;18.60;;;13.98;;
83556;SDS011;73523;55.740;13.276;2024-03-02T00:15:06;17.60;;;13.68;;
83556;SDS011;73523;55.740;13.276;2024-03-02T00:17:42;17.88;;;13.75;;
83556;SDS011;73523;55.740;13.276;2024-03-02T00:20:08;17.35;;;14.18;;
83556;SDS011;73523;55.740;13.276;2024-03-02T00:22:35;16.70;;;13.88;;
83556;SDS011;73523;55.740;13.276;2024-03-02T00:25:02;17.42;;;13.82;;
83556;SDS011;73523;55.740;13.276;2024-03-02T00:27:28;17.58;;;14.48;;
83556;SDS011;73523;55.740;13.276;2024-03-02T00:29:54;15.97;;;13.17;;
83556;SDS011;73523;55.740;13.276;2024-03-02T00:32:20;17.00;;;13.68;;
83556;SDS011;73523;55.740;13.276;2024-03-02T00:34:47;16.67;;;12.25;;
83556;SDS011;73523;55.740;13.276;2024-03-02T00:37:13;16.13;;;13.77;;
83556;SDS011;73523;55.740;13.276;2024-03-02T00:39:39;17.52;;;13.77;;
83556;SDS011;73523;55.740;13.276;2024-03-02T00:42:05;15.60;;;12.93;;
83556;SDS011;73523;55.740;13.276;2024-03-02T00:44:30;16.53;;;13.57;;
83556;SDS011;73523;55.740;13.276;2024-03-02T00:47:00;15.95;;;13.15;;
83556;SDS011;73523;55.740;13.276;2024-03-02T00:49:26;16.48;;;13.40;;
83556;SDS011;73523;55.740;13.276;2024-03-02T00:51:53;17.33;;;13.40;;
83556;SDS011;73523;55.740;13.276;2024-03-02T00:54:22;15.88;;;12.40;;
83556;SDS011;73523;55.740;13.276;2024-03-02T00:56:50;16.40;;;13.40;;
83556;SDS011;73523;55.740;13.276;2024-03-02T00:59:17;17.77;;;13.27;;
83556;SDS011;73523;55.740;13.276;2024-03-02T01:01:43;15.68;;;12.88;;
83556;SDS011;73523;55.740;13.276;2024-03-02T01:04:08;16.30;;;13.23;;
83556;SDS011;73523;55.740;13.276;2024-03-02T01:06:37;15.53;;;13.00;;
83556;SDS011;73523;55.740;13.276;2024-03-02T01:09:03;16.88;;;13.45;;
83556;SDS011;73523;55.740;13.276;2024-03-02T01:11:29;15.40;;;12.20;;
83556;SDS011;73523;55.740;13.276;2024-03-02T01:13:55;16.88;;;13.27;;
83556;SDS011;73523;55.740;13.276;2024-03-02T01:16:20;15.47;;;12.73;;
83556;SDS011;73523;55.740;13.276;2024-03-02T01:18:45;15.67;;;13.20;;
83556;SDS011;73523;55.740;13.276;2024-03-02T01:21:11;16.47;;;13.57;;
83556;SDS011;73523;55.740;13.276;2024-03-02T01:23:36;16.23;;;12.80;;
83556;SDS011;73523;55.740;13.276;2024-03-02T01:26:02;16.37;;;13.57;;
83556;SDS011;73523;55.740;13.276;2024-03-02T01:28:27;15.05;;;12.23;;
83556;SDS011;73523;55.740;13.276;2024-03-02T01:30:52;15.77;;;12.97;;
83556;SDS011;73523;55.740;13.276;2024-03-02T01:33:19;14.88;;;12.40;;
83556;SDS011;73523;55.740;13.276;2024-03-02T01:35:45;16.58;;;12.38;;
83556;SDS011;73523;55.740;13.276;2024-03-02T01:38:10;15.38;;;12.40;;
83556;SDS011;73523;55.740;13.276;2024-03-02T01:40:35;15.07;;;12.70;;
83556;SDS011;73523;55.740;13.276;2024-03-02T01:43:02;14.82;;;12.35;;
83556;SDS011;73523;55.740;13.276;2024-03-02T01:45:27;15.05;;;11.40;;
83556;SDS011;73523;55.740;13.276;2024-03-02T01:47:53;14.82;;;12.23;;
83556;SDS011;73523;55.740;13.276;2024-03-02T01:50:28;15.33;;;12.50;;
83556;SDS011;73523;55.740;13.276;2024-03-02T01:52:55;15.13;;;12.02;;
83556;SDS011;73523;55.740;13.276;2024-03-02T01:55:21;13.52;;;11.98;;
83556;SDS011;73523;55.740;13.276;2024-03-02T01:57:47;14.18;;;10.98;;
83556;SDS011;73523;55.740;13.276;2024-03-02T02:00:14;15.52;;;12.18;;
83556;SDS011;73523;55.740;13.276;2024-03-02T02:02:39;12.88;;;11.48;;
83556;SDS011;73523;55.740;13.276;2024-03-02T02:05:05;14.17;;;11.60;;
83556;SDS011;73523;55.740;13.276;2024-03-02T02:07:31;13.90;;;11.33;;
83556;SDS011;73523;55.740;13.276;2024-03-02T02:09:56;13.23;;;11.10;;
83556;SDS011;73523;55.740;13.276;2024-03-02T02:12:22;15.40;;;12.40;;
83556;SDS011;73523;55.740;13.276;2024-03-02T02:14:47;13.63;;;10.80;;
83556;SDS011;73523;55.740;13.276;2024-03-02T02:17:15;14.18;;;11.18;;
83556;SDS011;73523;55.740;13.276;2024-03-02T02:19:41;14.18;;;11.18;;
83556;SDS011;73523;55.740;13.276;2024-03-02T02:22:06;12.63;;;10.35;;
83556;SDS011;73523;55.740;13.276;2024-03-02T02:24:31;13.90;;;10.90;;
83556;SDS011;73523;55.740;13.276;2024-03-02T02:26:57;12.60;;;10.77;;
83556;SDS011;73523;55.740;13.276;2024-03-02T02:29:22;13.93;;;10.90;;
83556;SDS011;73523;55.740;13.276;2024-03-02T02:31:47;12.53;;;10.43;;
83556;SDS011;73523;55.740;13.276;2024-03-02T02:34:13;13.43;;;11.07;;
83556;SDS011;73523;55.740;13.276;2024-03-02T02:36:40;16.27;;;11.18;;
83556;SDS011;73523;55.740;13.276;2024-03-02T02:39:08;13.88;;;11.18;;
83556;SDS011;73523;55.740;13.276;2024-03-02T02:41:36;12.23;;;10.50;;
83556;SDS011;73523;55.740;13.276;2024-03-02T02:44:02;13.38;;;10.55;;
83556;SDS011;73523;55.740;13.276;2024-03-02T02:46:27;13.33;;;11.23;;
83556;SDS011;73523;55.740;13.276;2024-03-02T02:48:53;13.30;;;10.43;;
83556;SDS011;73523;55.740;13.276;2024-03-02T02:51:18;12.03;;;10.33;;
83556;SDS011;73523;55.740;13.276;2024-03-02T02:53:44;12.70;;;10.30;;
83556;SDS011;73523;55.740;13.276;2024-03-02T02:56:09;12.90;;;10.47;;
83556;SDS011;73523;55.740;13.276;2024-03-02T02:58:34;14.10;;;11.17;;
83556;SDS011;73523;55.740;13.276;2024-03-02T03:01:00;13.00;;;11.00;;
83556;SDS011;73523;55.740;13.276;2024-03-02T03:03:26;13.98;;;10.73;;
83556;SDS011;73523;55.740;13.276;2024-03-02T03:05:51;12.87;;;10.87;;
83556;SDS011;73523;55.740;13.276;2024-03-02T03:08:16;13.98;;;10.95;;
83556;SDS011;73523;55.740;13.276;2024-03-02T03:10:42;12.73;;;10.50;;
83556;SDS011;73523;55.740;13.276;2024-03-02T03:13:07;12.30;;;10.40;;
83556;SDS011;73523;55.740;13.276;2024-03-02T03:15:36;13.23;;;10.83;;
83556;SDS011;73523;55.740;13.276;2024-03-02T03:18:02;12.45;;;9.93;;
83556;SDS011;73523;55.740;13.276;2024-03-02T03:20:28;12.82;;;10.60;;
83556;SDS011;73523;55.740;13.276;2024-03-02T03:22:54;12.13;;;10.13;;
83556;SDS011;73523;55.740;13.276;2024-03-02T03:25:20;11.43;;;9.03;;
83556;SDS011;73523;55.740;13.276;2024-03-02T03:27:45;11.97;;;9.83;;
83556;SDS011;73523;55.740;13.276;2024-03-02T03:30:11;11.53;;;9.60;;
83556;SDS011;73523;55.740;13.276;2024-03-02T03:32:36;14.18;;;10.38;;
83556;SDS011;73523;55.740;13.276;2024-03-02T03:35:02;12.20;;;10.47;;
83556;SDS011;73523;55.740;13.276;2024-03-02T03:37:28;11.35;;;9.63;;
83556;SDS011;73523;55.740;13.276;2024-03-02T03:39:57;12.25;;;9.75;;
83556;SDS011;73523;55.740;13.276;2024-03-02T03:42:23;11.85;;;9.98;;
83556;SDS011;73523;55.740;13.276;2024-03-02T03:44:48;11.63;;;9.67;;
83556;SDS011;73523;55.740;13.276;2024-03-02T03:47:13;11.87;;;9.80;;
83556;SDS011;73523;55.740;13.276;2024-03-02T03:49:39;11.98;;;9.63;;
83556;SDS011;73523;55.740;13.276;2024-03-02T03:52:04;12.07;;;9.83;;
83556;SDS011;73523;55.740;13.276;2024-03-02T03:54:29;11.83;;;9.47;;
83556;SDS011;73523;55.740;13.276;2024-03-02T03:56:54;12.50;;;9.90;;
83556;SDS011;73523;55.740;13.276;2024-03-02T03:59:21;10.95;;;9.13;;
83556;SDS011;73523;55.740;13.276;2024-03-02T04:01:46;10.77;;;9.47;;
83556;SDS011;73523;55.740;13.276;2024-03-02T04:04:11;13.17;;;9.77;;
83556;SDS011;73523;55.740;13.276;2024-03-02T04:06:37;11.43;;;9.67;;
83556;SDS011;73523;55.740;13.276;2024-03-02T04:09:02;10.67;;;8.90;;
83556;SDS011;73523;55.740;13.276;2024-03-02T04:11:28;11.57;;;9.88;;
83556;SDS011;73523;55.740;13.276;2024-03-02T04:13:55;12.27;;;10.00;;
83556;SDS011;73523;55.740;13.276;2024-03-02T04:16:20;12.23;;;9.83;;
83556;SDS011;73523;55.740;13.276;2024-03-02T04:18:46;12.20;;;10.27;;
83556;SDS011;73523;55.740;13.276;2024-03-02T04:21:11;12.60;;;10.27;;
83556;SDS011;73523;55.740;13.276;2024-03-02T04:23:36;13.40;;;9.87;;
83556;SDS011;73523;55.740;13.276;2024-03-02T04:26:02;12.57;;;10.17;;
83556;SDS011;73523;55.740;13.276;2024-03-02T04:28:27;13.27;;;10.25;;
83556;SDS011;73523;55.740;13.276;2024-03-02T04:30:52;11.77;;;9.53;;
83556;SDS011;73523;55.740;13.276;2024-03-02T04:33:18;11.30;;;9.60;;
83556;SDS011;73523;55.740;13.276;2024-03-02T04:35:43;11.73;;;10.05;;
83556;SDS011;73523;55.740;13.276;2024-03-02T04:38:08;12.63;;;10.17;;
83556;SDS011;73523;55.740;13.276;2024-03-02T04:40:34;12.63;;;10.03;;
83556;SDS011;73523;55.740;13.276;2024-03-02T04:42:59;12.25;;;10.23;;
83556;SDS011;73523;55.740;13.276;2024-03-02T04:45:24;12.57;;;10.77;;
83556;SDS011;73523;55.740;13.276;2024-03-02T04:47:50;12.53;;;10.43;;
83556;SDS011;73523;55.740;13.276;2024-03-02T04:50:15;12.27;;;10.27;;
83556;SDS011;73523;55.740;13.276;2024-03-02T04:52:40;12.30;;;10.10;;
83556;SDS011;73523;55.740;13.276;2024-03-02T04:55:05;14.40;;;10.70;;
83556;SDS011;73523;55.740;13.276;2024-03-02T04:57:49;12.77;;;10.57;;
83556;SDS011;73523;55.740;13.276;2024-03-02T05:00:16;12.88;;;10.15;;
83556;SDS011;73523;55.740;13.276;2024-03-02T05:02:41;12.73;;;10.70;;
83556;SDS011;73523;55.740;13.276;2024-03-02T05:05:06;13.43;;;10.50;;
83556;SDS011;73523;55.740;13.276;2024-03-02T05:07:32;14.43;;;10.93;;
83556;SDS011;73523;55.740;13.276;2024-03-02T05:09:57;14.33;;;10.30;;
83556;SDS011;73523;55.740;13.276;2024-03-02T05:12:22;13.03;;;10.70;;
83556;SDS011;73523;55.740;13.276;2024-03-02T05:15:06;14.20;;;11.70;;
83556;SDS011;73523;55.740;13.276;2024-03-02T05:17:35;14.25;;;10.35;;
83556;SDS011;73523;55.740;13.276;2024-03-02T05:20:01;14.25;;;10.73;;
83556;SDS011;73523;55.740;13.276;2024-03-02T05:22:27;15.48;;;11.23;;
83556;SDS011;73523;55.740;13.276;2024-03-02T05:24:52;17.80;;;12.43;;
83556;SDS011;73523;55.740;13.276;2024-03-02T05:27:17;19.97;;;13.50;;
83556;SDS011;73523;55.740;13.276;2024-03-02T05:29:43;27.73;;;18.80;;
83556;SDS011;73523;55.740;13.276;2024-03-02T05:32:08;76.47;;;21.13;;
83556;SDS011;73523;55.740;13.276;2024-03-02T05:34:33;32.53;;;22.50;;
83556;SDS011;73523;55.740;13.276;2024-03-02T05:37:00;25.30;;;22.20;;
83556;SDS011;73523;55.740;13.276;2024-03-02T05:39:26;26.07;;;20.27;;
83556;SDS011;73523;55.740;13.276;2024-03-02T05:41:51;28.30;;;20.85;;
83556;SDS011;73523;55.740;13.276;2024-03-02T05:44:16;25.63;;;20.77;;
83556;SDS011;73523;55.740;13.276;2024-03-02T05:46:42;25.95;;;20.45;;
83556;SDS011;73523;55.740;13.276;2024-03-02T05:49:08;23.50;;;18.93;;
83556;SDS011;73523;55.740;13.276;2024-03-02T05:51:34;23.10;;;18.33;;
83556;SDS011;73523;55.740;13.276;2024-03-02T05:54:00;24.23;;;19.30;;
83556;SDS011;73523;55.740;13.276;2024-03-02T05:56:25;22.73;;;18.70;;
83556;SDS011;73523;55.740;13.276;2024-03-02T05:58:50;26.00;;;19.40;;
83556;SDS011;73523;55.740;13.276;2024-03-02T06:01:34;20.95;;;17.23;;
83556;SDS011;73523;55.740;13.276;2024-03-02T06:03:59;23.83;;;17.77;;
83556;SDS011;73523;55.740;13.276;2024-03-02T06:06:25;22.50;;;17.50;;
83556;SDS011;73523;55.740;13.276;2024-03-02T06:08:50;22.90;;;17.63;;
83556;SDS011;73523;55.740;13.276;2024-03-02T06:11:16;21.95;;;16.83;;
83556;SDS011;73523;55.740;13.276;2024-03-02T06:13:42;21.85;;;17.52;;
83556;SDS011;73523;55.740;13.276;2024-03-02T06:16:07;20.87;;;16.20;;
83556;SDS011;73523;55.740;13.276;2024-03-02T06:18:33;20.60;;;16.73;;
83556;SDS011;73523;55.740;13.276;2024-03-02T06:20:59;20.48;;;16.85;;
83556;SDS011;73523;55.740;13.276;2024-03-02T06:23:25;19.20;;;16.20;;
83556;SDS011;73523;55.740;13.276;2024-03-02T06:25:51;19.27;;;16.17;;
83556;SDS011;73523;55.740;13.276;2024-03-02T06:28:16;23.00;;;16.50;;
83556;SDS011;73523;55.740;13.276;2024-03-02T06:30:41;20.63;;;16.80;;
83556;SDS011;73523;55.740;13.276;2024-03-02T06:33:08;18.63;;;15.55;;
83556;SDS011;73523;55.740;13.276;2024-03-02T06:35:33;20.25;;;16.00;;
83556;SDS011;73523;55.740;13.276;2024-03-02T06:38:00;20.15;;;15.73;;
83556;SDS011;73523;55.740;13.276;2024-03-02T06:40:25;18.80;;;15.07;;
83556;SDS011;73523;55.740;13.276;2024-03-02T06:42:50;19.57;;;16.17;;
83556;SDS011;73523;55.740;13.276;2024-03-02T06:45:16;18.03;;;15.00;;
83556;SDS011;73523;55.740;13.276;2024-03-02T06:47:41;19.63;;;15.17;;
83556;SDS011;73523;55.740;13.276;2024-03-02T06:50:06;18.63;;;14.90;;
83556;SDS011;73523;55.740;13.276;2024-03-02T06:52:32;20.75;;;16.05;;
83556;SDS011;73523;55.740;13.276;2024-03-02T06:54:57;20.43;;;15.47;;
83556;SDS011;73523;55.740;13.276;2024-03-02T06:57:23;17.30;;;14.37;;
83556;SDS011;73523;55.740;13.276;2024-03-02T06:59:49;17.25;;;14.77;;
83556;SDS011;73523;55.740;13.276;2024-03-02T07:02:16;15.77;;;13.40;;
83556;SDS011;73523;55.740;13.276;2024-03-02T07:04:42;18.73;;;15.18;;
83556;SDS011;73523;55.740;13.276;2024-03-02T07:07:07;18.83;;;14.77;;
83556;SDS011;73523;55.740;13.276;2024-03-02T07:09:32;15.65;;;13.93;;
83556;SDS011;73523;55.740;13.276;2024-03-02T07:11:57;17.00;;;14.37;;
83556;SDS011;73523;55.740;13.276;2024-03-02T07:14:23;16.73;;;13.87;;
83556;SDS011;73523;55.740;13.276;2024-03-02T07:17:08;16.55;;;13.63;;
83556;SDS011;73523;55.740;13.276;2024-03-02T07:19:34;17.42;;;14.48;;
83556;SDS011;73523;55.740;13.276;2024-03-02T07:22:00;17.40;;;14.30;;
83556;SDS011;73523;55.740;13.276;2024-03-02T07:24:25;15.95;;;13.88;;
83556;SDS011;73523;55.740;13.276;2024-03-02T07:26:50;17.40;;;13.67;;
83556;SDS011;73523;55.740;13.276;2024-03-02T07:29:16;15.98;;;13.48;;
83556;SDS011;73523;55.740;13.276;2024-03-02T07:31:41;15.73;;;13.30;;
83556;SDS011;73523;55.740;13.276;2024-03-02T07:34:07;15.60;;;13.60;;
83556;SDS011;73523;55.740;13.276;2024-03-02T07:36:32;15.83;;;13.27;;
83556;SDS011;73523;55.740;13.276;2024-03-02T07:38:57;15.60;;;13.10;;
83556;SDS011;73523;55.740;13.276;2024-03-02T07:41:23;15.38;;;12.90;;
83556;SDS011;73523;55.740;13.276;2024-03-02T07:43:48;14.83;;;12.83;;
83556;SDS011;73523;55.740;13.276;2024-03-02T07:46:14;15.40;;;12.77;;
83556;SDS011;73523;55.740;13.276;2024-03-02T07:48:39;15.30;;;12.87;;
83556;SDS011;73523;55.740;13.276;2024-03-02T07:51:04;14.57;;;11.87;;
83556;SDS011;73523;55.740;13.276;2024-03-02T07:53:30;13.93;;;12.10;;
83556;SDS011;73523;55.740;13.276;2024-03-02T07:55:55;14.57;;;12.27;;
83556;SDS011;73523;55.740;13.276;2024-03-02T07:58:26;14.20;;;12.25;;
83556;SDS011;73523;55.740;13.276;2024-03-02T08:00:52;14.55;;;12.23;;
83556;SDS011;73523;55.740;13.276;2024-03-02T08:03:17;14.03;;;12.00;;
83556;SDS011;73523;55.740;13.276;2024-03-02T08:05:42;16.20;;;12.57;;
83556;SDS011;73523;55.740;13.276;2024-03-02T08:08:09;16.67;;;12.50;;
83556;SDS011;73523;55.740;13.276;2024-03-02T08:10:34;13.40;;;11.60;;
83556;SDS011;73523;55.740;13.276;2024-03-02T08:13:00;15.07;;;11.90;;
83556;SDS011;73523;55.740;13.276;2024-03-02T08:15:26;13.53;;;12.10;;
83556;SDS011;73523;55.740;13.276;2024-03-02T08:17:51;13.23;;;11.43;;
83556;SDS011;73523;55.740;13.276;2024-03-02T08:20:17;14.70;;;11.75;;
83556;SDS011;73523;55.740;13.276;2024-03-02T08:22:42;13.57;;;11.53;;
83556;SDS011;73523;55.740;13.276;2024-03-02T08:25:08;13.20;;;10.95;;
83556;SDS011;73523;55.740;13.276;2024-03-02T08:27:33;15.10;;;11.37;;
83556;SDS011;73523;55.740;13.276;2024-03-02T08:29:58;12.75;;;10.77;;
83556;SDS011;73523;55.740;13.276;2024-03-02T08:32:24;12.80;;;10.57;;
83556;SDS011;73523;55.740;13.276;2024-03-02T08:34:49;12.73;;;11.30;;
83556;SDS011;73523;55.740;13.276;2024-03-02T08:37:14;13.30;;;10.50;;
83556;SDS011;73523;55.740;13.276;2024-03-02T08:39:40;13.63;;;10.83;;
83556;SDS011;73523;55.740;13.276;2024-03-02T08:42:05;11.73;;;9.53;;
83556;SDS011;73523;55.740;13.276;2024-03-02T08:44:31;13.23;;;11.10;;
83556;SDS011;73523;55.740;13.276;2024-03-02T08:46:56;12.10;;;10.17;;
83556;SDS011;73523;55.740;13.276;2024-03-02T08:49:22;11.50;;;10.17;;
83556;SDS011;73523;55.740;13.276;2024-03-02T08:51:47;13.73;;;10.77;;
83556;SDS011;73523;55.740;13.276;2024-03-02T08:54:19;11.40;;;10.20;;
83556;SDS011;73523;55.740;13.276;2024-03-02T08:56:46;11.35;;;10.15;;
83556;SDS011;73523;55.740;13.276;2024-03-02T08:59:11;13.25;;;9.80;;
83556;SDS011;73523;55.740;13.276;2024-03-02T09:01:36;11.90;;;10.07;;
83556;SDS011;73523;55.740;13.276;2024-03-02T09:04:06;12.13;;;10.15;;
83556;SDS011;73523;55.740;13.276;2024-03-02T09:06:33;12.52;;;10.20;;
83556;SDS011;73523;55.740;13.276;2024-03-02T09:08:59;10.52;;;9.18;;
83556;SDS011;73523;55.740;13.276;2024-03-02T09:11:24;11.67;;;9.80;;
83556;SDS011;73523;55.740;13.276;2024-03-02T09:13:50;12.13;;;10.38;;
83556;SDS011;73523;55.740;13.276;2024-03-02T09:16:16;11.57;;;9.98;;
83556;SDS011;73523;55.740;13.276;2024-03-02T09:18:41;10.33;;;9.00;;
83556;SDS011;73523;55.740;13.276;2024-03-02T09:21:06;11.50;;;9.67;;
83556;SDS011;73523;55.740;13.276;2024-03-02T09:23:33;11.48;;;9.63;;
83556;SDS011;73523;55.740;13.276;2024-03-02T09:25:59;10.30;;;9.20;;
83556;SDS011;73523;55.740;13.276;2024-03-02T09:28:24;10.23;;;8.97;;
83556;SDS011;73523;55.740;13.276;2024-03-02T09:30:49;9.93;;;8.93;;
83556;SDS011;73523;55.740;13.276;2024-03-02T09:33:14;12.13;;;9.30;;
83556;SDS011;73523;55.740;13.276;2024-03-02T09:35:40;14.07;;;9.40;;
83556;SDS011;73523;55.740;13.276;2024-03-02T09:38:05;11.03;;;8.63;;
83556;SDS011;73523;55.740;13.276;2024-03-02T09:40:31;12.20;;;8.48;;
83556;SDS011;73523;55.740;13.276;2024-03-02T09:42:57;11.10;;;8.77;;
83556;SDS011;73523;55.740;13.276;2024-03-02T09:45:23;9.80;;;8.77;;
83556;SDS011;73523;55.740;13.276;2024-03-02T09:47:50;10.43;;;8.48;;
83556;SDS011;73523;55.740;13.276;2024-03-02T09:50:15;11.50;;;8.77;;
83556;SDS011;73523;55.740;13.276;2024-03-02T09:52:44;11.50;;;7.93;;
83556;SDS011;73523;55.740;13.276;2024-03-02T09:55:13;10.50;;;8.37;;
83556;SDS011;73523;55.740;13.276;2024-03-02T09:57:40;11.77;;;8.70;;
83556;SDS011;73523;55.740;13.276;2024-03-02T10:00:07;14.30;;;8.43;;
83556;SDS011;73523;55.740;13.276;2024-03-02T10:02:33;15.85;;;9.10;;
83556;SDS011;73523;55.740;13.276;2024-03-02T10:04:59;14.70;;;7.97;;
83556;SDS011;73523;55.740;13.276;2024-03-02T10:07:24;15.27;;;8.85;;
83556;SDS011;73523;55.740;13.276;2024-03-02T10:09:49;12.80;;;7.67;;
83556;SDS011;73523;55.740;13.276;2024-03-02T10:12:16;14.35;;;7.80;;
83556;SDS011;73523;55.740;13.276;2024-03-02T10:14:43;13.87;;;8.00;;
83556;SDS011;73523;55.740;13.276;2024-03-02T10:17:09;15.40;;;7.80;;
83556;SDS011;73523;55.740;13.276;2024-03-02T10:19:36;13.20;;;8.57;;
83556;SDS011;73523;55.740;13.276;2024-03-02T10:22:02;11.23;;;8.03;;
83556;SDS011;73523;55.740;13.276;2024-03-02T10:24:43;13.13;;;8.20;;
83556;SDS011;73523;55.740;13.276;2024-03-02T10:27:22;12.88;;;8.15;;
83556;SDS011;73523;55.740;13.276;2024-03-02T10:29:49;12.13;;;8.27;;
83556;SDS011;73523;55.740;13.276;2024-03-02T10:32:14;12.30;;;8.23;;
83556;SDS011;73523;55.740;13.276;2024-03-02T10:34:41;11.15;;;7.53;;
83556;SDS011;73523;55.740;13.276;2024-03-02T10:37:07;16.05;;;8.27;;
83556;SDS011;73523;55.740;13.276;2024-03-02T10:39:34;20.67;;;8.97;;
83556;SDS011;73523;55.740;13.276;2024-03-02T10:42:04;20.67;;;8.50;;
83556;SDS011;73523;55.740;13.276;2024-03-02T10:44:31;22.70;;;8.95;;
83556;SDS011;73523;55.740;13.276;2024-03-02T10:46:58;17.75;;;7.55;;
83556;SDS011;73523;55.740;13.276;2024-03-02T10:49:26;17.15;;;8.05;;
83556;SDS011;73523;55.740;13.276;2024-03-02T10:51:52;16.75;;;8.00;;
83556;SDS011;73523;55.740;13.276;2024-03-02T10:54:18;14.60;;;8.20;;
83556;SDS011;73523;55.740;13.276;2024-03-02T10:56:44;16.33;;;8.13;;
83556;SDS011;73523;55.740;13.276;2024-03-02T10:59:19;11.85;;;8.00;;
83556;SDS011;73523;55.740;13.276;2024-03-02T11:01:53;11.88;;;7.90;;
83556;SDS011;73523;55.740;13.276;2024-03-02T11:04:22;15.20;;;7.95;;
83556;SDS011;73523;55.740;13.276;2024-03-02T11:06:50;12.38;;;7.78;;
83556;SDS011;73523;55.740;13.276;2024-03-02T11:09:17;14.15;;;7.93;;
83556;SDS011;73523;55.740;13.276;2024-03-02T11:11:44;21.75;;;8.05;;
83556;SDS011;73523;55.740;13.276;2024-03-02T11:14:19;12.98;;;7.55;;
83556;SDS011;73523;55.740;13.276;2024-03-02T11:16:48;11.17;;;7.63;;
83556;SDS011;73523;55.740;13.276;2024-03-02T11:19:15;11.10;;;7.53;;
83556;SDS011;73523;55.740;13.276;2024-03-02T11:21:41;12.50;;;7.68;;
83556;SDS011;73523;55.740;13.276;2024-03-02T11:26:48;11.13;;;7.40;;
83556;SDS011;73523;55.740;13.276;2024-03-02T11:30:00;10.13;;;7.53;;
83556;SDS011;73523;55.740;13.276;2024-03-02T11:34:42;11.05;;;8.05;;
83556;SDS011;73523;55.740;13.276;2024-03-02T11:37:14;12.90;;;6.80;;
83556;SDS011;73523;55.740;13.276;2024-03-02T11:39:41;10.10;;;7.32;;
83556;SDS011;73523;55.740;13.276;2024-03-02T11:42:09;10.25;;;7.57;;
83556;SDS011;73523;55.740;13.276;2024-03-02T11:44:36;10.48;;;6.82;;
83556;SDS011;73523;55.740;13.276;2024-03-02T11:47:05;9.98;;;6.75;;
83556;SDS011;73523;55.740;13.276;2024-03-02T11:49:38;9.85;;;6.50;;
83556;SDS011;73523;55.740;13.276;2024-03-02T11:52:06;11.00;;;7.85;;
83556;SDS011;73523;55.740;13.276;2024-03-02T11:54:33;9.88;;;7.22;;
83556;SDS011;73523;55.740;13.276;2024-03-02T11:57:02;9.88;;;7.40;;
83556;SDS011;73523;55.740;13.276;2024-03-02T11:59:28;8.90;;;7.27;;
83556;SDS011;73523;55.740;13.276;2024-03-02T12:01:54;10.05;;;7.05;;
83556;SDS011;73523;55.740;13.276;2024-03-02T12:04:21;8.48;;;6.68;;
83556;SDS011;73523;55.740;13.276;2024-03-02T12:06:48;9.73;;;6.90;;
83556;SDS011;73523;55.740;13.276;2024-03-02T12:09:19;10.57;;;6.75;;
83556;SDS011;73523;55.740;13.276;2024-03-02T12:11:45;8.35;;;6.70;;
83556;SDS011;73523;55.740;13.276;2024-03-02T12:14:11;8.90;;;6.43;;
83556;SDS011;73523;55.740;13.276;2024-03-02T12:16:37;8.85;;;6.75;;
83556;SDS011;73523;55.740;13.276;2024-03-02T12:19:04;8.38;;;6.53;;
83556;SDS011;73523;55.740;13.276;2024-03-02T12:21:30;10.35;;;6.63;;
83556;SDS011;73523;55.740;13.276;2024-03-02T12:23:56;7.90;;;6.50;;
83556;SDS011;73523;55.740;13.276;2024-03-02T12:26:21;8.60;;;6.67;;
83556;SDS011;73523;55.740;13.276;2024-03-02T12:28:47;9.07;;;6.63;;
83556;SDS011;73523;55.740;13.276;2024-03-02T12:31:13;9.60;;;6.60;;
83556;SDS011;73523;55.740;13.276;2024-03-02T12:33:39;7.40;;;6.35;;
83556;SDS011;73523;55.740;13.276;2024-03-02T12:36:09;8.47;;;6.57;;
83556;SDS011;73523;55.740;13.276;2024-03-02T12:38:34;7.40;;;6.20;;
83556;SDS011;73523;55.740;13.276;2024-03-02T12:40:59;8.13;;;6.53;;
83556;SDS011;73523;55.740;13.276;2024-03-02T12:43:29;9.40;;;6.70;;
83556;SDS011;73523;55.740;13.276;2024-03-02T12:45:55;8.85;;;6.78;;
83556;SDS011;73523;55.740;13.276;2024-03-02T12:48:21;8.60;;;7.20;;
83556;SDS011;73523;55.740;13.276;2024-03-02T12:50:46;7.47;;;6.53;;
83556;SDS011;73523;55.740;13.276;2024-03-02T12:53:15;10.57;;;7.60;;
83556;SDS011;73523;55.740;13.276;2024-03-02T12:55:41;9.23;;;7.15;;
83556;SDS011;73523;55.740;13.276;2024-03-02T12:58:08;9.65;;;6.90;;
83556;SDS011;73523;55.740;13.276;2024-03-02T13:00:33;9.47;;;6.87;;
83556;SDS011;73523;55.740;13.276;2024-03-02T13:03:00;9.68;;;7.47;;
83556;SDS011;73523;55.740;13.276;2024-03-02T13:05:31;9.25;;;6.82;;
83556;SDS011;73523;55.740;13.276;2024-03-02T13:07:57;10.53;;;7.27;;
83556;SDS011;73523;55.740;13.276;2024-03-02T13:10:24;8.80;;;7.18;;
83556;SDS011;73523;55.740;13.276;2024-03-02T13:12:50;10.43;;;6.73;;
83556;SDS011;73523;55.740;13.276;2024-03-02T13:15:15;10.23;;;7.33;;
83556;SDS011;73523;55.740;13.276;2024-03-02T13:17:40;11.07;;;7.60;;
83556;SDS011;73523;55.740;13.276;2024-03-02T13:20:06;8.63;;;7.13;;
83556;SDS011;73523;55.740;13.276;2024-03-02T13:22:33;9.18;;;7.50;;
83556;SDS011;73523;55.740;13.276;2024-03-02T13:24:58;10.33;;;7.03;;
83556;SDS011;73523;55.740;13.276;2024-03-02T13:27:24;9.30;;;7.63;;
83556;SDS011;73523;55.740;13.276;2024-03-02T13:29:50;9.57;;;6.93;;
83556;SDS011;73523;55.740;13.276;2024-03-02T13:32:16;9.60;;;7.17;;
83556;SDS011;73523;55.740;13.276;2024-03-02T13:34:42;8.43;;;7.32;;
83556;SDS011;73523;55.740;13.276;2024-03-02T13:37:08;8.13;;;7.07;;
83556;SDS011;73523;55.740;13.276;2024-03-02T13:39:33;8.85;;;7.57;;
83556;SDS011;73523;55.740;13.276;2024-03-02T13:42:05;8.85;;;7.00;;
83556;SDS011;73523;55.740;13.276;2024-03-02T13:44:33;10.98;;;8.52;;
83556;SDS011;73523;55.740;13.276;2024-03-02T13:46:59;10.00;;;7.90;;
83556;SDS011;73523;55.740;13.276;2024-03-02T13:49:25;9.15;;;7.65;;
83556;SDS011;73523;55.740;13.276;2024-03-02T13:51:58;10.07;;;8.03;;
83556;SDS011;73523;55.740;13.276;2024-03-02T13:54:36;11.75;;;7.85;;
83556;SDS011;73523;55.740;13.276;2024-03-02T13:57:02;12.00;;;8.50;;
83556;SDS011;73523;55.740;13.276;2024-03-02T13:59:28;10.15;;;8.00;;
83556;SDS011;73523;55.740;13.276;2024-03-02T14:01:53;12.03;;;8.23;;
83556;SDS011;73523;55.740;13.276;2024-03-02T14:04:19;19.50;;;8.70;;
83556;SDS011;73523;55.740;13.276;2024-03-02T14:06:44;14.67;;;7.83;;
83556;SDS011;73523;55.740;13.276;2024-03-02T14:09:09;14.53;;;8.40;;
83556;SDS011;73523;55.740;13.276;2024-03-02T14:11:35;13.73;;;8.70;;
83556;SDS011;73523;55.740;13.276;2024-03-02T14:14:00;11.77;;;8.77;;
83556;SDS011;73523;55.740;13.276;2024-03-02T14:16:26;14.57;;;8.57;;